createdAt,value
2022-12-18T05:04:33.972Z,32.80
2022-12-18T05:05:33.776Z,19.80
2022-12-18T05:06:33.670Z,20.70
2022-12-18T05:07:33.602Z,20.30
2022-12-18T05:08:33.597Z,20.50
2022-12-18T05:09:33.587Z,20.60
2022-12-18T05:10:37.957Z,20.40
2022-12-18T05:11:34.575Z,21.10
2022-12-18T05:12:33.556Z,20.70
2022-12-18T05:13:33.587Z,20.00
2022-12-18T05:14:33.584Z,21.10
2022-12-18T05:15:33.571Z,20.00
2022-12-18T05:16:33.620Z,19.60
2022-12-18T05:17:33.531Z,19.30
2022-12-18T05:18:33.567Z,19.40
2022-12-18T05:19:33.568Z,19.80
2022-12-18T05:20:33.595Z,20.00
2022-12-18T05:21:33.501Z,19.70
2022-12-18T05:22:33.529Z,22.40
2022-12-18T05:23:33.503Z,21.00
2022-12-18T05:24:33.489Z,20.10
2022-12-18T05:25:33.518Z,19.40
2022-12-18T05:26:33.516Z,19.30
2022-12-18T05:27:33.503Z,20.20
2022-12-18T05:28:33.513Z,20.40
2022-12-18T05:29:33.455Z,19.80
2022-12-18T05:30:33.450Z,21.90
2022-12-18T05:31:38.889Z,22.40
2022-12-18T05:32:36.549Z,21.50
2022-12-18T05:33:33.743Z,23.10
2022-12-18T05:34:33.461Z,22.20
2022-12-18T05:35:33.413Z,22.60
2022-12-18T05:36:33.508Z,21.80
2022-12-18T05:37:36.892Z,21.30
2022-12-18T05:38:34.420Z,22.20
2022-12-18T05:39:33.551Z,23.10
2022-12-18T05:40:33.497Z,23.60
2022-12-18T05:41:33.397Z,22.50
2022-12-18T05:42:33.390Z,21.60
2022-12-18T05:43:33.447Z,21.10
2022-12-18T05:44:33.372Z,20.20
2022-12-18T05:45:33.362Z,20.10
2022-12-18T05:46:33.414Z,21.00
2022-12-18T05:47:33.372Z,20.70
2022-12-18T05:48:33.348Z,22.50
2022-12-18T05:49:33.359Z,21.10
2022-12-18T05:50:33.357Z,20.80
2022-12-18T05:51:33.353Z,21.00
2022-12-18T05:52:33.410Z,22.60
2022-12-18T05:53:33.330Z,21.30
2022-12-18T05:54:33.346Z,21.20
2022-12-18T05:55:33.302Z,21.70
2022-12-18T05:56:33.343Z,21.40
2022-12-18T05:57:33.305Z,21.20
2022-12-18T05:58:33.297Z,22.60
2022-12-18T05:59:33.298Z,22.40
2022-12-18T06:00:33.273Z,22.70
2022-12-18T06:01:33.305Z,24.80
2022-12-18T06:02:33.360Z,24.30
2022-12-18T06:03:34.153Z,24.70
2022-12-18T06:04:34.292Z,24.20
2022-12-18T06:05:33.265Z,25.20
2022-12-18T06:06:33.273Z,24.40
2022-12-18T06:07:33.273Z,24.90
2022-12-18T06:08:33.346Z,24.60
2022-12-18T06:09:33.262Z,24.80
2022-12-18T06:10:33.262Z,24.20
2022-12-18T06:11:33.225Z,27.90
2022-12-18T06:12:33.243Z,30.40
2022-12-18T06:13:33.881Z,27.10
2022-12-18T06:14:33.224Z,28.60
2022-12-18T06:15:33.195Z,27.00
2022-12-18T06:16:33.292Z,25.60
2022-12-18T06:17:33.229Z,25.70
2022-12-18T06:18:33.228Z,28.50
2022-12-18T06:19:33.222Z,26.20
2022-12-18T06:20:33.760Z,26.30
2022-12-18T06:21:34.168Z,26.60
2022-12-18T06:22:33.168Z,26.60
2022-12-18T06:23:33.165Z,27.30
2022-12-18T06:24:33.220Z,30.30
2022-12-18T06:25:33.137Z,33.10
2022-12-18T06:26:33.138Z,31.60
2022-12-18T06:27:33.130Z,30.20
2022-12-18T06:28:33.174Z,30.70
2022-12-18T06:29:33.126Z,31.50
2022-12-18T06:30:33.120Z,34.50
2022-12-18T06:31:33.197Z,26.10
2022-12-18T06:32:33.102Z,31.70
2022-12-18T06:33:33.117Z,27.20
2022-12-18T06:34:33.123Z,29.60
2022-12-18T06:35:33.114Z,26.50
2022-12-18T06:36:33.106Z,26.00
2022-12-18T06:37:33.132Z,26.50
2022-12-18T06:38:33.127Z,23.80
2022-12-18T06:39:33.053Z,23.20
2022-12-18T06:40:33.138Z,22.90
2022-12-18T06:41:33.097Z,22.60
2022-12-18T06:42:33.097Z,23.00
2022-12-18T06:43:33.079Z,22.80
2022-12-18T06:44:33.094Z,22.80
2022-12-18T06:45:33.058Z,24.60
2022-12-18T06:46:33.029Z,24.10
2022-12-18T06:47:33.068Z,24.50
2022-12-18T06:48:33.051Z,24.30
2022-12-18T06:49:33.029Z,23.70
2022-12-18T06:50:33.056Z,22.10
2022-12-18T06:51:32.997Z,22.40
2022-12-18T06:52:32.986Z,22.70
2022-12-18T06:53:33.024Z,24.90
2022-12-18T06:54:33.031Z,26.90
2022-12-18T06:55:32.964Z,24.40
2022-12-18T06:56:33.077Z,22.90
2022-12-18T06:57:33.013Z,22.10
2022-12-18T06:58:32.943Z,22.00
2022-12-18T06:59:33.004Z,21.60
2022-12-18T07:00:32.969Z,24.30
2022-12-18T07:01:33.085Z,24.40
